Terminal Aerodrome Forecast
Issued by NWS

Home | Current Version | Previous Version | Text Only | Print | Product List | Glossary On
Versions: 1 2 3 4 5 6 7 8 9 10 11 12 13 14 15 16 17 18 19 20 21 22 23 24 25 26
000
FTUS43 KIND 011100
TAFLAF
TAF
KLAF 011120Z 0112/0212 00000KT 3SM BCFG SCT200
      TEMPO 0112/0113 1/2SM FG BCFG
     FM011300 VRB03KT P6SM SCT250
     FM011600 VRB05KT P6SM SCT040 SCT250
     FM011900 VRB04KT P6SM VCTS BKN040CB
     FM020200 36003KT P6SM SCT040 BKN250
     FM020900 VRB03KT 4SM BR SCT040 BKN200
      AMD LTD TO CLD VIS AND WIND TIL 011300=

USA.gov is the U.S. government's official web portal to all federal, state and local government web resources and services.